Arboles, CO

3:14 AM MDT on September 22, 2014 (GMT -0600)
Pagosa Springs | Change Station
CLOSE
Current Station
Airport
Location: Pagosa Springs,
Elevation: 7657 ft
Nearby Weather Stations
Active Advisory: Flash Flood Watch

Elev 7657 ft 37.29 °N, 107.06 °W | Updated 19 minutes ago

Overcast
Overcast
58 °F
Feels Like 58 °F
N
0
Wind Variable Wind from North

Today
High -- | Low -- °F
--% Chance of Precip.
Yesterday
High -- | Low -- °F
Precip. -- in
6:57 AM 7:06 PM
Waning Crescent, 3% visible
Pressure 30.41 in
Visibility 10.0 miles
Clouds Scattered Clouds 3500 ft
Mostly Cloudy 4400 ft
Overcast 8500 ft
Dew Point 49 °F
Humidity 72%
Rainfall 0.00 in
Snow Depth Not available.
UV 0 out of 12
Pollen 6.30 out of 12
Air Quality Not available.
Flu Activity Not available.
METAR KPSO 220855Z AUTO 00000KT 10SM SCT035 BKN044 OVC085 15/10 A3041 RMK AO2 LTG DSNT NW T01450095

More Conditions Fewer Conditions

Pressure 30.41 in
Visibility 10.0 miles
Clouds Scattered Clouds 3500 ft
Mostly Cloudy 4400 ft
Overcast 8500 ft
Dew Point 49 °F
Humidity 72%
Rainfall 0.00 in
Snow Depth Not available.
UV 0 out of 12
Pollen 6.30 out of 12
Air Quality Not available.
Flu Activity Not available.
METAR KPSO 220855Z AUTO 00000KT 10SM SCT035 BKN044 OVC085 15/10 A3041 RMK AO2 LTG DSNT NW T01450095

More Conditions Fewer Conditions

10-Day Weather Forecast

Almanac

Astronomy

Sep. 22, 2014 Rise Set
Actual Time 6:57 AM MDT 7:06 PM MDT
Civil Twilight 6:31 AM MDT 7:32 PM MDT
Nautical Twilight 6:01 AM MDT 8:02 PM MDT
Astronomical Twilight 5:30 AM MDT 8:33 PM MDT
Moon 5:30 AM MDT 6:15 PM MDT
Length of Visible Light 13h 00m
Length of Day
12h 08m
Tomorrow will be 2m 21s shorter.
Waning Crescent, 3% of the Moon is Illuminated
Today
Waning Crescent
Sep 24
New
Oct 1
First Quarter
Oct 8
Full
Oct 15
Last Quarter

Today's Extremes

State Highs State Lows

Community

WunderPhotos

Upload Photos

1,755,402 photos uploaded!

Nearby

Snow Depth

Station Depth Elevation
Lost Dog 0 in 9320 ft
Buffalo Park 0 in 9240 ft
Michigan Creek 0 in 10600 ft
Berthoud Summit 0 in 11300 ft
Slumgullion 1 in 11440 ft

Earthquake Activity

City Distance Mag. Time & Date
No recent earthquake activity has been reported nearby.
Minimum magnitude displayed is 2.5.

Coastal Water Temperatures

Place Temperature
No Stations Reporting

Nearby Weather Stations